Time;durP1;ratioP1;P1;durP2;ratioP2;P2;SDS_P1;SDS_P2;PMS_P1;PMS_P2;Temp;Humidity;BMP_temperature;BMP_pressure;BME280_temperature;BME280_humidity;BME280_pressure;Samples;Min_cycle;Max_cycle;Signal;HPM_P1;HPM_P2
2023/09/04 00:02:02;;;;;;;4.70;3.70;;;19.20;99.90;;;;;;5044137;28;20233;-72
2023/09/04 00:04:28;;;;;;;5.10;4.20;;;19.20;99.90;;;;;;5063477;27;20254;-72
2023/09/04 00:06:53;;;;;;;5.57;4.30;;;19.10;99.90;;;;;;5047631;28;20220;-72
2023/09/04 00:09:19;;;;;;;4.70;4.23;;;19.10;99.90;;;;;;5034076;28;21039;-72
2023/09/04 00:11:45;;;;;;;4.57;4.17;;;19.10;99.90;;;;;;5032792;28;20224;-70
2023/09/04 00:14:11;;;;;;;5.90;4.30;;;19.10;99.90;;;;;;5062964;27;20261;-71
2023/09/04 00:16:37;;;;;;;4.80;4.40;;;19.10;99.90;;;;;;5017295;28;20227;-71
2023/09/04 00:19:03;;;;;;;4.50;3.90;;;19.10;99.90;;;;;;5048265;28;20573;-71
2023/09/04 00:21:29;;;;;;;4.53;4.13;;;19.00;99.90;;;;;;5035073;28;20713;-71
2023/09/04 00:23:54;;;;;;;6.07;4.20;;;18.90;99.90;;;;;;5047086;28;20231;-71
2023/09/04 00:26:20;;;;;;;5.50;4.13;;;18.90;99.90;;;;;;5047659;28;20298;-71
2023/09/04 00:28:47;;;;;;;4.90;4.40;;;18.90;99.90;;;;;;5035231;28;20224;-71
2023/09/04 00:31:13;;;;;;;4.37;3.97;;;18.90;99.90;;;;;;5036920;28;20458;-71
2023/09/04 00:33:38;;;;;;;4.67;4.27;;;18.90;99.90;;;;;;5021266;28;20235;-71
2023/09/04 00:36:04;;;;;;;4.47;4.07;;;18.80;99.90;;;;;;5047915;28;20815;-71
2023/09/04 00:38:30;;;;;;;4.30;3.90;;;18.90;99.90;;;;;;5037771;28;20311;-71
2023/09/04 00:40:55;;;;;;;4.47;4.07;;;18.80;99.90;;;;;;5032410;28;20653;-71
2023/09/04 00:43:21;;;;;;;5.20;4.17;;;18.80;99.90;;;;;;5046570;28;20252;-71
2023/09/04 00:45:47;;;;;;;4.43;4.00;;;18.80;99.90;;;;;;5046908;28;20342;-71
2023/09/04 00:48:14;;;;;;;4.50;4.10;;;18.80;99.90;;;;;;5028287;28;20239;-71
2023/09/04 00:50:41;;;;;;;5.77;4.30;;;18.80;99.90;;;;;;5032996;28;20272;-71
2023/09/04 00:53:09;;;;;;;4.60;4.20;;;18.80;99.90;;;;;;5016096;28;20474;-71
2023/09/04 00:55:37;;;;;;;4.30;4.00;;;18.70;99.90;;;;;;5048491;28;20474;-71
2023/09/04 00:58:03;;;;;;;5.13;4.73;;;18.70;99.90;;;;;;5033441;28;20462;-72
2023/09/04 01:00:29;;;;;;;4.50;4.10;;;18.60;99.90;;;;;;5048347;28;20462;-70
2023/09/04 01:02:59;;;;;;;4.50;4.10;;;18.60;99.90;;;;;;5043929;28;20505;-71
2023/09/04 01:05:28;;;;;;;5.20;4.30;;;18.50;99.90;;;;;;5047447;28;20462;-70
2023/09/04 01:07:54;;;;;;;4.00;3.70;;;18.50;99.90;;;;;;5046670;28;20451;-70
2023/09/04 01:10:21;;;;;;;5.73;5.13;;;18.50;99.90;;;;;;5033001;28;20493;-70
2023/09/04 01:12:58;;;;;;;4.43;4.03;;;18.50;99.90;;;;;;5047052;28;20525;-70
2023/09/04 01:15:26;;;;;;;4.60;4.20;;;18.50;99.90;;;;;;5034052;28;20564;-72
2023/09/04 01:17:53;;;;;;;3.90;3.60;;;18.50;99.90;;;;;;5029418;28;20466;-72
2023/09/04 01:20:19;;;;;;;4.47;4.07;;;18.40;99.90;;;;;;5046189;28;20471;-72
2023/09/04 01:22:44;;;;;;;4.10;3.80;;;18.30;99.90;;;;;;5034610;28;21033;-72
2023/09/04 01:25:10;;;;;;;3.90;3.60;;;18.30;99.90;;;;;;5032601;28;20223;-72
2023/09/04 01:27:41;;;;;;;4.83;4.20;;;18.30;99.90;;;;;;5034217;28;20228;-72
2023/09/04 01:30:16;;;;;;;4.77;4.37;;;18.30;99.90;;;;;;5046937;28;20312;-72
2023/09/04 01:32:48;;;;;;;4.33;3.87;;;18.20;99.90;;;;;;5045660;28;20470;-72
2023/09/04 01:35:15;;;;;;;4.33;4.00;;;18.20;99.90;;;;;;5045306;28;21156;-72
2023/09/04 01:37:42;;;;;;;5.10;3.87;;;18.20;99.90;;;;;;5047305;28;20580;-72
2023/09/04 01:40:08;;;;;;;4.50;4.10;;;18.20;99.90;;;;;;5028027;28;20486;-72
2023/09/04 01:42:36;;;;;;;4.53;3.80;;;18.20;99.90;;;;;;5030587;28;20612;-72
2023/09/04 01:45:02;;;;;;;4.40;4.00;;;18.10;99.90;;;;;;5032103;28;20251;-70
2023/09/04 01:47:30;;;;;;;8.13;4.57;;;18.10;99.90;;;;;;5021959;28;20471;-70
2023/09/04 01:49:57;;;;;;;4.50;4.10;;;18.10;99.90;;;;;;5028489;28;20239;-71
2023/09/04 01:52:23;;;;;;;4.40;4.00;;;18.00;99.90;;;;;;5016935;28;20473;-71
2023/09/04 01:54:48;;;;;;;4.80;4.40;;;17.90;99.90;;;;;;5014701;28;20261;-71
2023/09/04 01:57:16;;;;;;;5.50;4.90;;;17.90;99.90;;;;;;5028891;28;20679;-72
2023/09/04 01:59:42;;;;;;;8.73;4.87;;;18.00;99.90;;;;;;5044476;28;20242;-71
2023/09/04 02:02:07;;;;;;;4.37;3.97;;;18.00;99.90;;;;;;5014178;28;20466;-71
2023/09/04 02:04:34;;;;;;;4.00;3.70;;;17.90;99.90;;;;;;5062680;28;20220;-71
2023/09/04 02:07:00;;;;;;;4.93;4.17;;;17.90;99.90;;;;;;5013473;28;20215;-71
2023/09/04 02:09:26;;;;;;;4.57;4.17;;;17.90;99.90;;;;;;5015594;28;20561;-71
2023/09/04 02:11:52;;;;;;;5.03;4.00;;;17.90;99.90;;;;;;5014150;28;21006;-71
2023/09/04 02:14:17;;;;;;;4.67;4.20;;;17.80;99.90;;;;;;5015503;28;20312;-71
2023/09/04 02:16:43;;;;;;;5.40;4.10;;;17.80;99.90;;;;;;5028616;28;20254;-71
2023/09/04 02:19:10;;;;;;;4.43;4.03;;;17.80;99.90;;;;;;5043118;28;20946;-72
2023/09/04 02:21:36;;;;;;;4.10;3.70;;;17.80;99.90;;;;;;5029968;28;20458;-71
2023/09/04 02:24:02;;;;;;;4.83;4.43;;;17.80;99.90;;;;;;5030748;28;20532;-71
2023/09/04 02:26:27;;;;;;;3.67;3.37;;;17.80;99.90;;;;;;5047581;28;20977;-71
2023/09/04 02:28:53;;;;;;;4.30;3.90;;;17.70;99.90;;;;;;5060796;28;20588;-71
2023/09/04 02:31:19;;;;;;;4.33;3.93;;;17.70;99.90;;;;;;5031073;28;20223;-71
2023/09/04 02:33:45;;;;;;;4.87;4.10;;;17.70;99.90;;;;;;5013348;28;20472;-71
2023/09/04 02:36:10;;;;;;;4.27;3.87;;;17.70;99.90;;;;;;5013122;28;20784;-71
2023/09/04 02:38:36;;;;;;;5.17;4.17;;;17.70;99.90;;;;;;5030575;28;20258;-71
2023/09/04 02:41:02;;;;;;;4.80;4.23;;;17.70;99.90;;;;;;5048330;28;20304;-71
2023/09/04 02:43:27;;;;;;;6.50;3.83;;;17.70;99.90;;;;;;5032531;28;20224;-71
2023/09/04 02:45:57;;;;;;;4.77;3.83;;;17.70;99.90;;;;;;5015157;28;20216;-71
2023/09/04 02:48:23;;;;;;;4.63;4.10;;;17.60;99.90;;;;;;5031029;28;20471;-72
2023/09/04 02:50:48;;;;;;;4.57;4.17;;;17.70;99.90;;;;;;5014761;28;20482;-71
2023/09/04 02:53:14;;;;;;;4.60;4.20;;;17.60;99.90;;;;;;5032332;28;20228;-71
2023/09/04 02:55:45;;;;;;;4.97;4.47;;;17.60;99.90;;;;;;5044487;28;20717;-71
2023/09/04 02:58:11;;;;;;;5.20;3.73;;;17.60;99.90;;;;;;5044108;28;20960;-71
2023/09/04 03:00:40;;;;;;;4.00;3.60;;;17.60;99.90;;;;;;5044720;28;20470;-71
2023/09/04 03:03:07;;;;;;;5.03;4.20;;;17.60;99.90;;;;;;5029218;28;20315;-71
2023/09/04 03:05:32;;;;;;;5.30;4.50;;;17.60;99.90;;;;;;5029870;28;20589;-71
2023/09/04 03:07:59;;;;;;;4.80;4.30;;;17.60;99.90;;;;;;5028800;28;20470;-72
2023/09/04 03:10:25;;;;;;;3.83;3.53;;;17.60;99.90;;;;;;5043464;28;20577;-71
2023/09/04 03:12:52;;;;;;;4.97;4.03;;;17.60;99.90;;;;;;5028969;28;20329;-72
2023/09/04 03:15:18;;;;;;;4.30;3.90;;;17.50;99.90;;;;;;5021143;28;20867;-71
2023/09/04 03:17:44;;;;;;;3.80;3.50;;;17.50;99.90;;;;;;5031230;28;20565;-71
2023/09/04 03:20:11;;;;;;;4.07;3.77;;;17.50;99.90;;;;;;5031153;28;20512;-71
2023/09/04 03:22:37;;;;;;;4.10;3.70;;;17.40;99.90;;;;;;5031319;28;20512;-71
2023/09/04 03:25:03;;;;;;;4.47;3.83;;;17.40;99.90;;;;;;5011205;28;20462;-71
2023/09/04 03:27:31;;;;;;;4.93;4.50;;;17.40;99.90;;;;;;5046452;28;20220;-71
2023/09/04 03:29:57;;;;;;;4.47;4.00;;;17.40;99.90;;;;;;5014637;28;20470;-71
2023/09/04 03:32:23;;;;;;;4.80;3.93;;;17.40;99.90;;;;;;5030492;28;20547;-71
2023/09/04 03:34:49;;;;;;;6.23;3.63;;;17.40;99.90;;;;;;5029513;28;20220;-72
2023/09/04 03:37:15;;;;;;;7.03;3.70;;;17.20;99.90;;;;;;5011223;28;20459;-71
2023/09/04 03:39:40;;;;;;;4.03;3.73;;;17.30;99.90;;;;;;5042133;28;20231;-71
2023/09/04 03:42:07;;;;;;;4.77;4.00;;;17.30;99.90;;;;;;5055431;28;20796;-71
2023/09/04 03:44:33;;;;;;;4.53;3.70;;;17.30;99.90;;;;;;5015465;28;20338;-71
2023/09/04 03:46:58;;;;;;;5.50;3.50;;;17.30;99.90;;;;;;5030190;28;20757;-71
2023/09/04 03:49:24;;;;;;;5.63;5.00;;;17.30;99.90;;;;;;5029737;28;20239;-72
2023/09/04 03:51:50;;;;;;;4.30;3.83;;;17.30;99.90;;;;;;5019670;28;20796;-71
2023/09/04 03:54:16;;;;;;;5.43;4.27;;;17.30;99.90;;;;;;5045405;28;20240;-71
2023/09/04 03:56:41;;;;;;;4.67;4.27;;;17.30;99.90;;;;;;5030630;28;20282;-72
2023/09/04 03:59:07;;;;;;;4.43;3.70;;;17.20;99.90;;;;;;5027107;28;20335;-72
2023/09/04 04:01:33;;;;;;;4.23;3.73;;;17.20;99.90;;;;;;5043140;28;20809;-72
2023/09/04 04:03:59;;;;;;;4.70;4.30;;;17.10;99.90;;;;;;5040460;28;20262;-72
2023/09/04 04:06:25;;;;;;;5.30;3.53;;;17.10;99.90;;;;;;5043324;28;20224;-71
2023/09/04 04:08:51;;;;;;;7.33;4.63;;;17.10;99.90;;;;;;5044566;28;20470;-72
2023/09/04 04:11:19;;;;;;;4.07;3.73;;;17.00;99.90;;;;;;5027516;28;20768;-71
2023/09/04 04:13:46;;;;;;;4.33;3.93;;;16.90;99.90;;;;;;5060443;28;20466;-71
2023/09/04 04:16:12;;;;;;;4.50;4.10;;;16.90;99.90;;;;;;5013379;28;20449;-71
2023/09/04 04:18:37;;;;;;;4.07;3.67;;;16.90;99.90;;;;;;5046381;28;20466;-71
2023/09/04 04:21:04;;;;;;;5.23;3.40;;;16.90;99.90;;;;;;5047332;28;20262;-71
2023/09/04 04:23:30;;;;;;;4.17;3.87;;;16.90;99.90;;;;;;5048183;28;20403;-71
2023/09/04 04:25:56;;;;;;;4.17;3.80;;;17.00;99.90;;;;;;5047896;28;21050;-71
2023/09/04 04:28:22;;;;;;;5.67;4.27;;;16.80;99.90;;;;;;5047206;28;20564;-71
2023/09/04 04:30:48;;;;;;;4.03;3.73;;;16.80;99.90;;;;;;5033485;28;20240;-71
2023/09/04 04:33:13;;;;;;;4.00;3.57;;;16.80;99.90;;;;;;5014847;28;20466;-71
2023/09/04 04:35:39;;;;;;;4.50;4.10;;;16.80;99.90;;;;;;5017142;28;20220;-71
2023/09/04 04:38:06;;;;;;;4.77;3.37;;;16.80;99.90;;;;;;5046048;28;20433;-71
2023/09/04 04:40:33;;;;;;;4.50;4.00;;;16.80;99.90;;;;;;5047238;28;20462;-71
2023/09/04 04:42:59;;;;;;;5.33;3.97;;;16.80;99.90;;;;;;5032678;28;20479;-71
2023/09/04 04:45:26;;;;;;;4.77;3.87;;;16.80;99.90;;;;;;5024008;28;21120;-71
2023/09/04 04:47:52;;;;;;;4.50;4.07;;;16.80;99.90;;;;;;5043685;28;20501;-71
2023/09/04 04:50:18;;;;;;;4.10;3.70;;;16.70;99.90;;;;;;5027413;28;20971;-71
2023/09/04 04:52:44;;;;;;;4.67;4.23;;;16.70;99.90;;;;;;5042632;28;20328;-71
2023/09/04 04:55:10;;;;;;;5.57;4.50;;;16.60;99.90;;;;;;5047961;28;21217;-71
2023/09/04 04:57:35;;;;;;;4.60;4.30;;;16.50;99.90;;;;;;5026024;28;20402;-71
2023/09/04 05:00:06;;;;;;;5.43;4.37;;;16.30;99.90;;;;;;5029729;28;20896;-71
2023/09/04 05:02:37;;;;;;;4.77;4.27;;;16.30;99.90;;;;;;5014021;28;20211;-71
2023/09/04 05:05:03;;;;;;;5.27;4.63;;;16.30;99.90;;;;;;5012501;28;20476;-71
2023/09/04 05:07:30;;;;;;;4.40;3.97;;;16.30;99.90;;;;;;5028591;28;20462;-71
2023/09/04 05:09:56;;;;;;;5.00;3.70;;;16.40;99.90;;;;;;5043569;28;20610;-71
2023/09/04 05:12:23;;;;;;;5.37;3.70;;;16.40;99.90;;;;;;5048670;28;20557;-72
2023/09/04 05:14:50;;;;;;;4.20;3.80;;;16.50;99.90;;;;;;5044498;28;20474;-72
2023/09/04 05:17:18;;;;;;;4.70;4.30;;;16.40;99.90;;;;;;5026992;28;20482;-72
2023/09/04 05:19:44;;;;;;;4.97;4.47;;;16.30;99.90;;;;;;5026545;28;20478;-71
2023/09/04 05:22:10;;;;;;;5.73;4.13;;;16.40;99.90;;;;;;5057120;28;20357;-72
2023/09/04 05:24:36;;;;;;;6.73;4.20;;;16.40;99.90;;;;;;5030422;28;20223;-72
2023/09/04 05:27:05;;;;;;;4.70;4.30;;;16.40;99.90;;;;;;5027684;28;20215;-71
2023/09/04 05:29:30;;;;;;;3.90;3.50;;;16.40;99.90;;;;;;5027152;28;20230;-71
2023/09/04 05:31:57;;;;;;;4.83;4.33;;;16.40;99.90;;;;;;5027629;28;20478;-71
2023/09/04 05:34:23;;;;;;;4.57;4.17;;;16.40;99.90;;;;;;5048906;28;20304;-72
2023/09/04 05:36:49;;;;;;;4.90;4.43;;;16.40;99.90;;;;;;5030172;28;20474;-72
2023/09/04 05:39:15;;;;;;;5.60;4.90;;;16.40;99.90;;;;;;5027932;28;20234;-71
2023/09/04 05:41:40;;;;;;;4.67;4.13;;;16.50;99.90;;;;;;5002514;28;20227;-72
2023/09/04 05:44:06;;;;;;;5.30;4.47;;;16.40;99.90;;;;;;5011067;28;20231;-69
2023/09/04 05:46:32;;;;;;;4.87;4.17;;;16.50;99.90;;;;;;4983773;28;20216;-69
2023/09/04 05:48:58;;;;;;;4.20;3.60;;;16.40;99.90;;;;;;5010532;28;20878;-70
2023/09/04 05:51:24;;;;;;;4.40;4.00;;;16.50;99.90;;;;;;4986614;28;20477;-70
2023/09/04 05:53:51;;;;;;;5.07;4.37;;;16.50;99.90;;;;;;5000442;28;20354;-70
2023/09/04 05:56:17;;;;;;;10.23;4.20;;;16.50;99.90;;;;;;4997876;28;20470;-69
2023/09/04 05:58:47;;;;;;;5.23;4.33;;;16.60;99.90;;;;;;5001644;28;20465;-70
2023/09/04 06:01:13;;;;;;;4.70;4.27;;;16.60;99.90;;;;;;5017759;28;20458;-70
2023/09/04 06:03:39;;;;;;;5.00;4.33;;;16.60;99.90;;;;;;5000581;28;20513;-68
2023/09/04 06:06:05;;;;;;;4.60;4.13;;;16.60;99.90;;;;;;5000703;28;20463;-70
2023/09/04 06:08:33;;;;;;;4.60;4.10;;;16.60;99.90;;;;;;4995241;28;21198;-70
2023/09/04 06:10:59;;;;;;;4.80;3.97;;;16.60;99.90;;;;;;4981590;28;20517;-69
2023/09/04 06:13:25;;;;;;;5.43;4.83;;;16.60;99.90;;;;;;4984266;28;20462;-70
2023/09/04 06:15:51;;;;;;;5.30;4.27;;;16.60;99.90;;;;;;4997602;28;20617;-70
2023/09/04 06:18:17;;;;;;;5.07;4.57;;;16.60;99.90;;;;;;4998822;28;20382;-70
2023/09/04 06:20:43;;;;;;;4.87;4.30;;;16.60;99.90;;;;;;5022161;28;20285;-70
2023/09/04 06:23:08;;;;;;;4.10;3.70;;;16.60;99.90;;;;;;5000308;28;20216;-69
2023/09/04 06:25:39;;;;;;;4.77;4.03;;;16.70;99.90;;;;;;5001030;28;20597;-70
2023/09/04 06:28:06;;;;;;;4.10;3.70;;;16.70;99.90;;;;;;5021033;28;20265;-70
2023/09/04 06:30:31;;;;;;;4.47;3.87;;;16.70;99.90;;;;;;5011378;28;20477;-72
2023/09/04 06:32:57;;;;;;;4.87;4.47;;;16.70;99.90;;;;;;4998362;28;20832;-70
2023/09/04 06:35:23;;;;;;;4.40;4.00;;;16.80;99.90;;;;;;4999730;28;20234;-70
2023/09/04 06:37:50;;;;;;;4.30;3.90;;;16.80;99.90;;;;;;5000182;28;20354;-70
2023/09/04 06:40:16;;;;;;;4.47;4.07;;;16.80;99.90;;;;;;4999125;28;20320;-70
2023/09/04 06:42:41;;;;;;;4.37;4.07;;;16.80;99.90;;;;;;4999503;28;20508;-70
2023/09/04 06:45:08;;;;;;;4.80;4.23;;;16.90;99.90;;;;;;4998684;28;20569;-70
2023/09/04 06:47:33;;;;;;;4.27;3.87;;;17.00;99.90;;;;;;5029157;28;20235;-70
2023/09/04 06:50:01;;;;;;;4.00;3.60;;;17.10;99.90;;;;;;4981937;28;20601;-72
2023/09/04 06:52:26;;;;;;;6.73;5.30;;;17.10;99.90;;;;;;4982316;28;20224;-70
2023/09/04 06:54:52;;;;;;;4.77;4.13;;;17.20;99.90;;;;;;4982832;28;20488;-70
2023/09/04 06:57:18;;;;;;;5.33;4.40;;;17.20;99.90;;;;;;5000205;28;20311;-70
2023/09/04 06:59:43;;;;;;;5.00;4.33;;;17.20;99.90;;;;;;4999655;28;21020;-72
2023/09/04 07:02:09;;;;;;;5.20;4.73;;;17.30;99.90;;;;;;5010885;28;20310;-70
2023/09/04 07:04:35;;;;;;;4.43;4.03;;;17.30;99.90;;;;;;5002631;28;20216;-70
2023/09/04 07:07:00;;;;;;;7.17;4.80;;;17.30;99.90;;;;;;4998537;28;20376;-70
2023/09/04 07:09:26;;;;;;;4.23;3.60;;;17.40;99.90;;;;;;5009955;28;20239;-70
2023/09/04 07:11:52;;;;;;;5.23;3.60;;;17.50;99.90;;;;;;5016495;28;20216;-70
2023/09/04 07:14:18;;;;;;;4.50;4.00;;;17.60;99.90;;;;;;4983692;28;20703;-70
2023/09/04 07:16:43;;;;;;;7.80;4.00;;;17.70;99.90;;;;;;5007526;28;20306;-70
2023/09/04 07:19:09;;;;;;;5.80;4.43;;;17.70;99.90;;;;;;5030350;28;20293;-70
2023/09/04 07:21:36;;;;;;;6.70;4.27;;;17.70;99.90;;;;;;4984654;28;20293;-70
2023/09/04 07:24:03;;;;;;;5.23;4.57;;;17.80;99.90;;;;;;5012113;28;20257;-72
2023/09/04 07:26:29;;;;;;;4.50;4.20;;;17.90;99.90;;;;;;5009732;28;21232;-70
2023/09/04 07:28:55;;;;;;;7.40;4.50;;;17.90;99.90;;;;;;4992511;28;20500;-70
2023/09/04 07:31:21;;;;;;;6.93;4.80;;;18.00;99.90;;;;;;4984001;28;20459;-70
2023/09/04 07:33:47;;;;;;;4.30;3.90;;;18.10;99.90;;;;;;4998332;28;20242;-70
2023/09/04 07:36:13;;;;;;;5.37;4.83;;;18.20;99.90;;;;;;4981385;28;20458;-70
2023/09/04 07:38:39;;;;;;;4.50;4.10;;;18.30;99.90;;;;;;5000157;28;20757;-70
2023/09/04 07:41:05;;;;;;;4.70;4.30;;;18.30;99.90;;;;;;4998043;28;20976;-70
2023/09/04 07:43:32;;;;;;;5.17;4.67;;;18.50;99.90;;;;;;4998392;28;20478;-70
2023/09/04 07:45:58;;;;;;;5.57;4.37;;;18.60;99.90;;;;;;4997526;28;20362;-70
2023/09/04 07:48:24;;;;;;;6.03;5.10;;;18.60;99.90;;;;;;5000238;28;20476;-70
2023/09/04 07:50:52;;;;;;;5.50;4.37;;;18.70;99.90;;;;;;4994660;28;20470;-72
2023/09/04 07:53:19;;;;;;;4.53;4.17;;;18.70;99.90;;;;;;5003609;28;20219;-70
2023/09/04 07:55:45;;;;;;;4.40;4.00;;;18.80;99.90;;;;;;5004593;28;20498;-70
2023/09/04 07:58:11;;;;;;;4.67;4.27;;;18.80;99.90;;;;;;5001581;28;20472;-72
2023/09/04 08:00:41;;;;;;;5.17;4.60;;;19.00;99.90;;;;;;5012683;28;20616;-70
2023/09/04 08:03:07;;;;;;;5.37;4.40;;;19.00;99.90;;;;;;5019554;28;20265;-72
2023/09/04 08:05:33;;;;;;;4.73;4.27;;;19.00;99.90;;;;;;5025442;28;20489;-72
2023/09/04 08:07:59;;;;;;;5.03;4.47;;;19.10;99.90;;;;;;5000564;28;20368;-72
2023/09/04 08:10:25;;;;;;;5.20;4.50;;;19.20;99.90;;;;;;5001190;28;21209;-71
2023/09/04 08:12:50;;;;;;;3.97;3.67;;;19.30;99.90;;;;;;5015469;28;20242;-70
2023/09/04 08:15:16;;;;;;;4.47;3.80;;;19.30;99.90;;;;;;5000884;28;20799;-70
2023/09/04 08:17:43;;;;;;;4.77;4.37;;;19.40;99.90;;;;;;5012811;28;20270;-70
2023/09/04 08:20:10;;;;;;;4.70;4.30;;;19.40;99.90;;;;;;5002053;28;20231;-70
2023/09/04 08:22:36;;;;;;;4.47;3.80;;;19.50;99.90;;;;;;5002654;28;20482;-70
2023/09/04 08:25:01;;;;;;;4.63;3.80;;;19.60;99.90;;;;;;5012680;28;20569;-71
2023/09/04 08:27:27;;;;;;;4.10;3.60;;;19.70;99.90;;;;;;5001723;28;20223;-70
2023/09/04 08:29:53;;;;;;;4.60;4.20;;;19.60;99.90;;;;;;5003141;28;20231;-70
2023/09/04 08:32:18;;;;;;;5.03;3.63;;;19.80;99.90;;;;;;4995547;28;20374;-70
2023/09/04 08:34:44;;;;;;;5.53;3.57;;;19.80;99.90;;;;;;4984195;28;20608;-71
2023/09/04 08:37:10;;;;;;;4.67;3.77;;;19.90;99.90;;;;;;5013125;28;20223;-70
2023/09/04 08:39:36;;;;;;;4.90;4.13;;;20.00;99.90;;;;;;5025920;28;20516;-71
2023/09/04 08:42:07;;;;;;;7.13;4.07;;;19.90;99.90;;;;;;4985216;28;20274;-70
2023/09/04 08:44:36;;;;;;;3.27;3.07;;;19.90;99.90;;;;;;5018044;28;20219;-70
2023/09/04 08:47:04;;;;;;;3.87;3.47;;;20.00;99.90;;;;;;5001551;28;20499;-70
2023/09/04 08:49:29;;;;;;;4.17;3.83;;;20.20;99.90;;;;;;5028356;28;20505;-70
2023/09/04 08:51:55;;;;;;;4.70;3.70;;;20.20;99.90;;;;;;4984258;28;20489;-70
2023/09/04 08:54:22;;;;;;;4.93;4.43;;;20.10;99.90;;;;;;5003516;28;20220;-70
2023/09/04 08:56:47;;;;;;;3.87;3.57;;;20.30;99.90;;;;;;4983845;28;20224;-70
2023/09/04 08:59:13;;;;;;;4.40;3.60;;;20.40;99.90;;;;;;5010368;28;20538;-70
2023/09/04 09:01:41;;;;;;;4.10;3.80;;;20.60;99.90;;;;;;4994572;28;20923;-70
2023/09/04 09:04:08;;;;;;;4.47;4.17;;;20.80;99.90;;;;;;5018933;28;20288;-70
2023/09/04 09:06:35;;;;;;;4.20;3.80;;;20.80;99.90;;;;;;5024745;28;20470;-71
2023/09/04 09:09:02;;;;;;;5.00;3.80;;;20.80;99.90;;;;;;5011477;28;20466;-70
2023/09/04 09:11:29;;;;;;;3.93;3.43;;;20.80;99.90;;;;;;5002776;28;20474;-71
2023/09/04 09:13:54;;;;;;;4.43;4.10;;;21.00;99.90;;;;;;5002048;28;20546;-71
2023/09/04 09:16:21;;;;;;;4.60;4.13;;;21.00;99.90;;;;;;4984788;28;20472;-71
2023/09/04 09:18:48;;;;;;;4.60;4.03;;;21.00;99.90;;;;;;5010449;28;20332;-71
2023/09/04 09:21:25;;;;;;;4.13;3.80;;;20.90;99.90;;;;;;5002110;28;20458;-71
2023/09/04 09:24:17;;;;;;;4.00;3.60;;;21.00;99.90;;;;;;4994624;28;20473;-71
2023/09/04 09:26:45;;;;;;;3.93;3.60;;;21.30;99.90;;;;;;4977921;28;20458;-71
2023/09/04 09:29:12;;;;;;;4.87;3.70;;;21.30;99.90;;;;;;5017781;28;20466;-71
2023/09/04 09:31:39;;;;;;;4.53;3.60;;;21.20;99.90;;;;;;4984579;28;20473;-71
2023/09/04 09:34:05;;;;;;;3.90;3.50;;;21.50;99.90;;;;;;4998793;28;20473;-71
2023/09/04 09:36:31;;;;;;;3.83;3.53;;;21.60;99.90;;;;;;4984886;28;20564;-71
2023/09/04 09:38:57;;;;;;;3.90;3.60;;;21.60;99.90;;;;;;5011237;28;20466;-71
2023/09/04 09:41:23;;;;;;;4.53;4.13;;;21.40;99.90;;;;;;4983935;28;21229;-71
2023/09/04 09:43:49;;;;;;;4.57;4.17;;;21.40;99.90;;;;;;4994862;28;20234;-70
2023/09/04 09:46:18;;;;;;;5.83;4.00;;;21.40;99.90;;;;;;4984722;28;20466;-70
2023/09/04 09:48:45;;;;;;;7.93;3.80;;;21.50;99.90;;;;;;5000427;28;20474;-71
2023/09/04 09:51:11;;;;;;;4.40;4.00;;;21.70;99.90;;;;;;4999847;28;20489;-70
2023/09/04 09:53:47;;;;;;;3.80;3.50;;;21.90;99.90;;;;;;5014906;28;20490;-70
2023/09/04 09:56:14;;;;;;;4.30;4.00;;;22.00;99.90;;;;;;5000041;28;20472;-71
2023/09/04 09:58:45;;;;;;;3.77;3.47;;;22.20;99.90;;;;;;5001855;28;20480;-71
2023/09/04 10:01:12;;;;;;;3.70;3.40;;;22.10;99.90;;;;;;5026390;28;20449;-71
2023/09/04 10:03:38;;;;;;;4.27;3.87;;;22.20;99.90;;;;;;5014667;28;20490;-71
2023/09/04 10:06:06;;;;;;;3.73;3.43;;;22.40;99.90;;;;;;5009904;28;21217;-71
2023/09/04 10:08:37;;;;;;;4.90;3.63;;;22.40;99.90;;;;;;4983721;28;20230;-70
2023/09/04 10:11:06;;;;;;;4.90;3.30;;;22.40;99.90;;;;;;4992766;28;20500;-71
2023/09/04 10:13:37;;;;;;;3.77;3.53;;;22.10;99.90;;;;;;5001652;28;20601;-71
2023/09/04 10:16:06;;;;;;;3.47;3.23;;;22.50;99.90;;;;;;5009372;28;20483;-70
2023/09/04 10:18:36;;;;;;;4.33;3.90;;;22.50;99.90;;;;;;5011066;28;20469;-71
2023/09/04 10:21:05;;;;;;;4.57;3.23;;;22.80;99.90;;;;;;5024736;28;20568;-71
2023/09/04 10:23:43;;;;;;;3.70;3.40;;;23.10;99.90;;;;;;4993158;28;20469;-71
2023/09/04 10:26:15;;;;;;;3.23;2.93;;;23.10;99.90;;;;;;4999034;28;20486;-71
2023/09/04 10:28:43;;;;;;;5.40;3.80;;;23.20;99.90;;;;;;5014164;28;21101;-71
2023/09/04 10:31:10;;;;;;;4.40;4.10;;;23.50;99.90;;;;;;4997596;28;20481;-71
2023/09/04 10:33:37;;;;;;;4.60;3.53;;;23.60;99.90;;;;;;4999751;28;20531;-71
2023/09/04 10:36:04;;;;;;;3.80;3.47;;;23.60;99.90;;;;;;5000031;28;20533;-71
2023/09/04 10:38:30;;;;;;;3.70;3.40;;;23.60;99.90;;;;;;5018961;28;20538;-71
2023/09/04 10:40:57;;;;;;;3.83;3.40;;;23.90;99.90;;;;;;5010625;28;21046;-71
2023/09/04 10:43:36;;;;;;;3.17;2.93;;;23.70;99.90;;;;;;4992584;28;20476;-71
2023/09/04 10:46:07;;;;;;;3.70;3.40;;;23.70;99.90;;;;;;4999127;28;20465;-71
2023/09/04 10:48:50;;;;;;;3.10;2.90;;;23.70;99.90;;;;;;4983001;28;20473;-71
2023/09/04 10:51:29;;;;;;;3.07;2.83;;;23.80;99.90;;;;;;5009101;28;20474;-71
2023/09/04 10:53:56;;;;;;;2.80;2.60;;;24.10;99.90;;;;;;5008784;28;20556;-71
2023/09/04 10:56:22;;;;;;;3.00;2.80;;;24.20;99.90;;;;;;5011998;28;20662;-71
2023/09/04 10:59:00;;;;;;;3.03;2.83;;;24.00;99.90;;;;;;4993339;28;20545;-71
2023/09/04 11:01:36;;;;;;;3.80;3.10;;;23.90;99.90;;;;;;5008313;28;20356;-71
2023/09/04 11:04:07;;;;;;;3.23;2.93;;;24.00;99.90;;;;;;5002246;28;20476;-70
2023/09/04 11:06:40;;;;;;;3.10;2.80;;;24.10;99.90;;;;;;5010360;28;21310;-71
2023/09/04 11:09:09;;;;;;;3.10;2.90;;;23.80;99.90;;;;;;4999115;28;20473;-71
2023/09/04 11:11:35;;;;;;;4.93;3.10;;;23.70;99.90;;;;;;5026460;28;20547;-71
2023/09/04 11:14:03;;;;;;;3.07;2.87;;;23.70;99.90;;;;;;5020341;28;20586;-71
2023/09/04 11:16:38;;;;;;;3.37;2.90;;;23.70;99.90;;;;;;5013169;28;20522;-71
2023/09/04 11:19:15;;;;;;;4.53;4.23;;;23.80;99.90;;;;;;4982380;28;20479;-71
2023/09/04 11:21:44;;;;;;;3.07;2.87;;;23.90;99.90;;;;;;5001616;28;20642;-71
2023/09/04 11:24:10;;;;;;;3.13;2.90;;;24.00;99.90;;;;;;5007986;28;20470;-71
2023/09/04 11:26:36;;;;;;;3.50;2.80;;;24.00;99.90;;;;;;4982866;28;20677;-71
2023/09/04 11:29:04;;;;;;;3.17;2.97;;;23.90;99.90;;;;;;4998697;28;20221;-71
2023/09/04 11:31:31;;;;;;;3.43;3.13;;;24.10;99.90;;;;;;4998768;28;20999;-71
2023/09/04 11:33:58;;;;;;;2.70;2.50;;;24.30;99.90;;;;;;5008220;28;20470;-71
2023/09/04 11:36:25;;;;;;;3.30;3.00;;;24.40;99.90;;;;;;5009718;28;20469;-71
2023/09/04 11:39:12;;;;;;;3.67;3.37;;;24.00;99.90;;;;;;5016624;28;20473;-71
2023/09/04 11:41:38;;;;;;;3.00;2.80;;;24.20;99.90;;;;;;5026101;28;20473;-71
2023/09/04 11:44:05;;;;;;;2.90;2.47;;;24.50;99.90;;;;;;4991497;28;20743;-71
2023/09/04 11:46:31;;;;;;;3.13;2.93;;;24.60;99.90;;;;;;5022425;28;20770;-71
2023/09/04 11:48:57;;;;;;;3.43;2.70;;;24.70;99.90;;;;;;4999008;28;20987;-71
2023/09/04 11:51:23;;;;;;;3.20;2.97;;;24.50;99.90;;;;;;4997168;28;20558;-71
2023/09/04 11:53:49;;;;;;;2.67;2.47;;;24.30;99.90;;;;;;4998656;28;20712;-71
2023/09/04 11:56:15;;;;;;;3.03;2.80;;;24.30;99.90;;;;;;5012552;28;20457;-71
2023/09/04 11:58:41;;;;;;;3.40;3.10;;;24.50;99.90;;;;;;5027031;28;20311;-71
2023/09/04 12:01:07;;;;;;;3.20;3.00;;;24.70;99.90;;;;;;5008285;28;21027;-71
2023/09/04 12:03:32;;;;;;;3.33;3.13;;;24.40;99.90;;;;;;4994781;28;20222;-71
2023/09/04 12:05:58;;;;;;;3.30;3.10;;;24.30;99.90;;;;;;4998330;28;20265;-71
2023/09/04 12:08:24;;;;;;;3.37;3.07;;;24.40;99.90;;;;;;4998207;28;20231;-71
2023/09/04 12:10:53;;;;;;;2.53;2.43;;;24.50;99.90;;;;;;5026190;28;20354;-71
2023/09/04 12:13:19;;;;;;;3.80;3.50;;;24.50;99.90;;;;;;5012081;28;20285;-72
2023/09/04 12:15:46;;;;;;;3.00;2.70;;;24.40;99.90;;;;;;5025355;28;20604;-71
2023/09/04 12:18:13;;;;;;;3.00;2.80;;;24.70;99.90;;;;;;4980820;28;20243;-71
2023/09/04 12:20:43;;;;;;;4.63;2.37;;;24.80;99.90;;;;;;5015729;28;20489;-71
2023/09/04 12:23:09;;;;;;;2.80;2.60;;;24.90;99.90;;;;;;5008380;28;20492;-71
2023/09/04 12:25:36;;;;;;;2.63;2.43;;;25.00;99.90;;;;;;5026019;28;20466;-72
2023/09/04 12:28:05;;;;;;;2.63;2.50;;;25.20;99.90;;;;;;4997821;28;20645;-71
2023/09/04 12:30:35;;;;;;;3.30;2.90;;;25.00;99.90;;;;;;5000080;28;20474;-71
2023/09/04 12:33:01;;;;;;;3.20;2.90;;;24.90;99.90;;;;;;5008529;28;20572;-71
2023/09/04 12:35:30;;;;;;;3.30;3.10;;;24.80;99.90;;;;;;5008231;28;20476;-71
2023/09/04 12:37:56;;;;;;;3.00;2.80;;;25.00;99.90;;;;;;4994743;28;21045;-71
2023/09/04 12:40:22;;;;;;;3.30;3.00;;;25.00;99.90;;;;;;5031520;28;20475;-71
2023/09/04 12:42:47;;;;;;;3.07;2.87;;;24.90;99.90;;;;;;5001761;28;20936;-71
2023/09/04 12:45:13;;;;;;;3.10;2.50;;;25.30;99.90;;;;;;5010982;28;20270;-71
2023/09/04 12:47:41;;;;;;;5.53;2.80;;;25.50;99.90;;;;;;5016502;28;20713;-72